createdAt,value
2022-10-13T00:01:14.479Z,99321.84
2022-10-13T00:03:46.995Z,99328.13
2022-10-13T00:06:18.964Z,99321.00
2022-10-13T00:08:46.324Z,99331.44
2022-10-13T00:11:19.258Z,99335.13
2022-10-13T00:13:47.558Z,99337.09
2022-10-13T00:16:22.167Z,99336.50
2022-10-13T00:18:50.299Z,99335.78
2022-10-13T00:21:22.731Z,99323.59
2022-10-13T00:23:51.810Z,99323.66
2022-10-13T00:26:21.126Z,99315.75
2022-10-13T00:28:52.299Z,99323.78
2022-10-13T00:31:29.147Z,99323.59
2022-10-13T00:33:58.350Z,99327.09
2022-10-13T00:36:25.520Z,99335.03
2022-10-13T00:38:53.952Z,99332.59
2022-10-13T00:41:21.797Z,99328.47
2022-10-13T00:44:05.527Z,99333.06
2022-10-13T00:46:37.163Z,99335.50
2022-10-13T00:49:16.708Z,99323.25
2022-10-13T00:51:48.939Z,99317.16
2022-10-13T00:54:23.493Z,99322.50
2022-10-13T00:56:52.193Z,99314.63
2022-10-13T00:59:29.131Z,99319.91
2022-10-13T01:02:00.108Z,99310.22
2022-10-13T01:04:34.582Z,99312.88
2022-10-13T01:07:02.817Z,99310.28
2022-10-13T01:09:37.342Z,99308.66
2022-10-13T01:12:43.063Z,99307.06
2022-10-13T01:15:17.260Z,99300.03
2022-10-13T01:18:05.919Z,99303.72
2022-10-13T01:20:49.254Z,99308.31
2022-10-13T01:23:22.593Z,99309.16
2022-10-13T01:26:22.993Z,99306.56
2022-10-13T01:29:39.684Z,99303.25
2022-10-13T01:32:24.767Z,99297.09
2022-10-13T01:35:00.323Z,99295.38
2022-10-13T01:38:08.345Z,99304.13
2022-10-13T01:41:16.024Z,99292.03
2022-10-13T01:44:01.094Z,99294.72
2022-10-13T01:46:34.084Z,99284.91
2022-10-13T01:49:09.818Z,99286.84
2022-10-13T01:51:38.940Z,99289.44
2022-10-13T01:54:06.435Z,99285.84
2022-10-13T01:56:33.211Z,99292.88
2022-10-13T01:59:08.371Z,99289.50
2022-10-13T02:01:58.325Z,99291.44
2022-10-13T02:05:01.787Z,99284.66
2022-10-13T02:07:48.576Z,99291.72
2022-10-13T02:10:28.805Z,99291.88
2022-10-13T02:13:11.211Z,99280.63
2022-10-13T02:15:46.171Z,99279.94
2022-10-13T02:18:18.526Z,99278.19
2022-10-13T02:20:46.583Z,99287.03
2022-10-13T02:23:17.566Z,99295.09
2022-10-13T02:25:47.375Z,99289.88
2022-10-13T02:28:16.110Z,99294.31
2022-10-13T02:30:45.408Z,99295.97
2022-10-13T02:33:14.426Z,99292.47
2022-10-13T02:35:42.217Z,99291.75
2022-10-13T02:38:09.717Z,99284.75
2022-10-13T02:40:37.464Z,99290.03
2022-10-13T02:43:05.052Z,99276.94
2022-10-13T02:45:31.987Z,99272.78
2022-10-13T02:47:59.265Z,99277.16
2022-10-13T02:50:26.123Z,99277.81
2022-10-13T02:52:52.885Z,99283.84
2022-10-13T02:55:19.897Z,99277.88
2022-10-13T02:57:46.753Z,99279.69
2022-10-13T03:00:14.826Z,99276.94
2022-10-13T03:02:42.578Z,99270.06
2022-10-13T03:05:10.447Z,99266.75
2022-10-13T03:07:37.873Z,99278.16
2022-10-13T03:10:05.767Z,99270.25
2022-10-13T03:12:33.236Z,99268.50
2022-10-13T03:15:00.661Z,99266.91
2022-10-13T03:17:28.451Z,99272.34
2022-10-13T03:19:55.330Z,99274.09
2022-10-13T03:22:22.638Z,99280.31
2022-10-13T03:24:49.883Z,99281.16
2022-10-13T03:27:16.687Z,99281.03
2022-10-13T03:29:44.215Z,99270.56
2022-10-13T03:32:11.273Z,99278.56
2022-10-13T03:34:38.076Z,99279.59
2022-10-13T03:37:04.989Z,99282.16
2022-10-13T03:39:32.004Z,99286.31
2022-10-13T03:41:58.974Z,99281.97
2022-10-13T03:44:25.886Z,99277.63
2022-10-13T03:46:52.882Z,99283.91
2022-10-13T03:49:20.012Z,99283.91
2022-10-13T03:51:46.917Z,99281.25
2022-10-13T03:54:14.780Z,99282.94
2022-10-13T03:56:42.372Z,99282.06
2022-10-13T03:59:13.265Z,99278.47
2022-10-13T04:01:40.719Z,99280.28
2022-10-13T04:04:11.169Z,99279.56
2022-10-13T04:06:38.265Z,99278.00
2022-10-13T04:09:05.891Z,99271.94
2022-10-13T04:11:32.809Z,99266.75
2022-10-13T04:13:59.741Z,99276.44
2022-10-13T04:16:30.847Z,99266.09
2022-10-13T04:19:05.086Z,99263.59
2022-10-13T04:21:35.191Z,99258.38
2022-10-13T04:24:02.925Z,99260.06
2022-10-13T04:26:34.059Z,99255.81
2022-10-13T04:29:05.752Z,99262.16
2022-10-13T04:31:33.618Z,99259.47
2022-10-13T04:34:00.573Z,99261.28
2022-10-13T04:36:28.196Z,99252.47
2022-10-13T04:38:55.464Z,99248.81
2022-10-13T04:41:23.266Z,99255.72
2022-10-13T04:43:52.216Z,99254.00
2022-10-13T04:46:23.858Z,99246.13
2022-10-13T04:48:52.060Z,99253.94
2022-10-13T04:51:25.274Z,99254.97
2022-10-13T04:54:02.078Z,99255.03
2022-10-13T04:56:29.964Z,99243.41
2022-10-13T04:58:57.426Z,99250.38
2022-10-13T05:01:26.053Z,99256.31
2022-10-13T05:04:00.325Z,99247.59
2022-10-13T05:06:31.696Z,99247.66
2022-10-13T05:08:59.175Z,99251.91
2022-10-13T05:11:28.498Z,99259.50
2022-10-13T05:13:57.473Z,99263.94
2022-10-13T05:16:26.261Z,99253.53
2022-10-13T05:18:55.377Z,99260.59
2022-10-13T05:21:28.939Z,99260.78
2022-10-13T05:23:57.684Z,99268.81
2022-10-13T05:26:29.229Z,99269.72
2022-10-13T05:28:57.959Z,99265.25
2022-10-13T05:31:28.009Z,99274.00
2022-10-13T05:33:55.784Z,99255.72
2022-10-13T05:36:27.698Z,99257.44
2022-10-13T05:38:59.759Z,99255.06
2022-10-13T05:41:28.987Z,99257.47
2022-10-13T05:44:04.702Z,99256.50
2022-10-13T05:46:32.003Z,99250.56
2022-10-13T05:48:59.334Z,99251.50
2022-10-13T05:51:32.900Z,99256.94
2022-10-13T05:54:16.041Z,99249.09
2022-10-13T05:56:51.540Z,99250.91
2022-10-13T05:59:26.886Z,99250.84
2022-10-13T06:01:55.385Z,99241.28
2022-10-13T06:04:32.945Z,99244.03
2022-10-13T06:06:59.938Z,99247.63
2022-10-13T06:09:35.705Z,99239.75
2022-10-13T06:12:02.573Z,99237.78
2022-10-13T06:14:30.641Z,99236.19
2022-10-13T06:16:57.790Z,99240.41
2022-10-13T06:19:24.697Z,99243.16
2022-10-13T06:21:52.267Z,99235.03
2022-10-13T06:24:19.185Z,99232.47
2022-10-13T06:26:46.042Z,99245.56
2022-10-13T06:29:13.052Z,99240.19
2022-10-13T06:31:39.952Z,99238.50
2022-10-13T06:34:06.797Z,99240.06
2022-10-13T06:36:35.020Z,99241.88
2022-10-13T06:39:01.850Z,99241.94
2022-10-13T06:41:28.861Z,99241.00
2022-10-13T06:43:56.104Z,99242.69
2022-10-13T06:46:23.117Z,99245.09
2022-10-13T06:48:51.553Z,99241.31
2022-10-13T06:51:19.093Z,99239.53
2022-10-13T06:53:46.103Z,99236.72
2022-10-13T06:56:14.247Z,99239.88
2022-10-13T06:58:41.174Z,99231.72
2022-10-13T07:01:09.183Z,99231.72
2022-10-13T07:03:36.032Z,99233.22
2022-10-13T07:06:05.771Z,99235.72
2022-10-13T07:08:34.100Z,99219.13
2022-10-13T07:11:16.277Z,99236.47
2022-10-13T07:13:46.613Z,99237.81
2022-10-13T07:16:16.019Z,99234.97
2022-10-13T07:18:43.337Z,99244.44
2022-10-13T07:21:10.317Z,99233.66
2022-10-13T07:23:37.338Z,99244.22
2022-10-13T07:26:13.018Z,99230.09
2022-10-13T07:28:40.606Z,99237.84
2022-10-13T07:31:16.995Z,99226.44
2022-10-13T07:33:48.146Z,99232.47
2022-10-13T07:36:15.399Z,99228.78
2022-10-13T07:38:42.404Z,99224.25
2022-10-13T07:41:12.310Z,99229.31
2022-10-13T07:43:40.241Z,99237.06
2022-10-13T07:46:08.742Z,99230.81
2022-10-13T07:48:36.509Z,99235.88
2022-10-13T07:51:10.460Z,99233.06
2022-10-13T07:53:38.430Z,99232.69
2022-10-13T07:56:09.058Z,99228.72
2022-10-13T07:58:46.793Z,99228.31
2022-10-13T08:01:15.558Z,99234.19
2022-10-13T08:03:47.334Z,99226.09
2022-10-13T08:06:17.847Z,99229.44
2022-10-13T08:08:44.948Z,99222.53
2022-10-13T08:11:16.643Z,99225.03
2022-10-13T08:13:51.926Z,99219.63
2022-10-13T08:16:19.411Z,99221.06
2022-10-13T08:18:48.872Z,99220.72
2022-10-13T08:21:56.772Z,99221.41
2022-10-13T08:24:15.997Z,99217.63
2022-10-13T08:26:47.164Z,99213.84
2022-10-13T08:29:23.598Z,99224.13
2022-10-13T08:31:56.003Z,99228.56
2022-10-13T08:34:24.857Z,99222.44
2022-10-13T08:36:54.806Z,99225.88
2022-10-13T08:39:23.717Z,99222.97
2022-10-13T08:41:52.086Z,99224.50
2022-10-13T08:47:38.436Z,99223.00
2022-10-13T08:50:15.040Z,99224.63
2022-10-13T08:53:03.916Z,99217.28
2022-10-13T08:55:42.137Z,99215.28
2022-10-13T08:58:23.600Z,99208.00
2022-10-13T09:01:15.769Z,99203.25
2022-10-13T09:04:15.732Z,99201.97
2022-10-13T09:06:55.056Z,99198.94
2022-10-13T09:09:22.592Z,99196.16
2022-10-13T09:11:51.241Z,99186.28
2022-10-13T09:14:32.923Z,99192.22
2022-10-13T09:17:23.886Z,99189.50
2022-10-13T09:20:21.329Z,99189.38
2022-10-13T09:23:19.370Z,99190.03
2022-10-13T09:25:52.481Z,99187.16
2022-10-13T09:28:28.907Z,99184.25
2022-10-13T09:31:14.244Z,99178.66
2022-10-13T09:33:41.674Z,99169.47
2022-10-13T09:36:16.795Z,99179.69
2022-10-13T09:39:06.578Z,99171.41
2022-10-13T09:41:35.564Z,99173.66
2022-10-13T09:44:27.914Z,99167.22
2022-10-13T09:47:04.169Z,99169.66
2022-10-13T09:49:37.382Z,99162.34
2022-10-13T09:52:13.236Z,99168.41
2022-10-13T09:54:40.383Z,99159.22
2022-10-13T09:57:16.786Z,99164.31
2022-10-13T09:59:51.730Z,99160.56
2022-10-13T10:02:35.654Z,99157.75
2022-10-13T10:05:25.302Z,99162.84
2022-10-13T10:07:56.583Z,99158.84
2022-10-13T10:10:35.414Z,99157.53
2022-10-13T10:13:03.492Z,99158.84
2022-10-13T10:15:53.143Z,99155.81
2022-10-13T10:18:45.641Z,99152.53
2022-10-13T10:21:57.053Z,99144.81
2022-10-13T10:25:06.492Z,99145.88
2022-10-13T10:27:50.269Z,99150.44
2022-10-13T10:30:20.551Z,99146.34
2022-10-13T10:33:13.077Z,99144.28
2022-10-13T10:36:02.223Z,99140.19
2022-10-13T10:38:39.566Z,99136.22
2022-10-13T10:41:34.324Z,99122.69
2022-10-13T10:44:04.892Z,99120.63
2022-10-13T10:46:39.133Z,99122.28
2022-10-13T10:49:23.767Z,99117.56
2022-10-13T10:51:51.053Z,99114.69
2022-10-13T10:54:36.782Z,99116.16
2022-10-13T10:57:24.812Z,99109.63
2022-10-13T11:00:06.594Z,99105.69
2022-10-13T11:03:07.505Z,99104.59
2022-10-13T11:06:22.945Z,99092.06
2022-10-13T11:08:50.837Z,99096.31
2022-10-13T11:11:25.075Z,99093.31
2022-10-13T11:14:21.599Z,99088.50
2022-10-13T11:17:17.099Z,99092.25
2022-10-13T11:19:45.898Z,99080.28
2022-10-13T11:22:23.194Z,99073.19
2022-10-13T11:25:00.662Z,99072.34
2022-10-13T11:27:39.963Z,99067.31
2022-10-13T11:30:47.608Z,99060.66
2022-10-13T11:33:39.732Z,99055.53
2022-10-13T11:36:30.439Z,99057.03
2022-10-13T11:39:20.609Z,99040.88
2022-10-13T11:42:36.503Z,99044.28
2022-10-13T11:45:33.606Z,99037.09
2022-10-13T11:48:45.196Z,99026.34
2022-10-13T11:51:31.686Z,99030.59
2022-10-13T11:54:23.735Z,99026.03
2022-10-13T11:56:57.396Z,99014.53
2022-10-13T11:59:32.363Z,99022.25
2022-10-13T12:02:18.934Z,99023.84
2022-10-13T12:05:20.623Z,99013.84
2022-10-13T12:07:52.778Z,99015.28
2022-10-13T12:10:36.519Z,99018.72
2022-10-13T12:13:05.333Z,99007.00
2022-10-13T12:15:37.651Z,98998.84
2022-10-13T12:18:27.665Z,99000.47
2022-10-13T12:20:58.904Z,98993.97
2022-10-13T12:23:30.150Z,98992.06
2022-10-13T12:25:59.067Z,98990.91
2022-10-13T12:28:43.572Z,98984.53
2022-10-13T12:31:21.713Z,98986.06
2022-10-13T12:34:01.435Z,98979.56
2022-10-13T12:36:35.528Z,98983.94
2022-10-13T12:39:10.612Z,98977.53
2022-10-13T12:41:44.978Z,98986.41
2022-10-13T12:44:26.176Z,98983.84
2022-10-13T12:46:59.337Z,98976.69
2022-10-13T12:49:33.893Z,98978.63
2022-10-13T12:52:24.292Z,98976.88
2022-10-13T12:54:56.172Z,98976.03
2022-10-13T12:57:38.654Z,98977.22
2022-10-13T13:00:20.074Z,98973.66
2022-10-13T13:03:03.253Z,98970.91
2022-10-13T13:05:38.863Z,98971.56
2022-10-13T13:08:29.838Z,98958.13
2022-10-13T13:10:59.020Z,98957.09
2022-10-13T13:13:27.738Z,98955.09
2022-10-13T13:16:13.521Z,98957.53
2022-10-13T13:18:46.198Z,98956.56
2022-10-13T13:21:16.773Z,98963.22
2022-10-13T13:23:51.142Z,98957.91
2022-10-13T13:26:23.619Z,98959.41
2022-10-13T13:28:54.180Z,98960.13
2022-10-13T13:31:25.078Z,98959.94
2022-10-13T13:33:52.924Z,98951.75
2022-10-13T13:36:25.077Z,98948.09
2022-10-13T13:38:55.610Z,98949.72
2022-10-13T13:41:24.100Z,98947.06
2022-10-13T13:43:51.132Z,98937.34
2022-10-13T13:46:27.652Z,98946.41
2022-10-13T13:48:54.747Z,98945.56
2022-10-13T13:51:21.675Z,98942.03
2022-10-13T13:53:48.522Z,98943.75
2022-10-13T13:56:19.015Z,98935.66
2022-10-13T13:58:46.914Z,98940.97
2022-10-13T14:01:15.718Z,98941.91
2022-10-13T14:03:42.907Z,98935.84
2022-10-13T14:06:20.400Z,98939.47
2022-10-13T14:08:47.594Z,98923.56
2022-10-13T14:11:14.570Z,98923.78
2022-10-13T14:13:41.564Z,98922.63
2022-10-13T14:16:18.037Z,98918.22
2022-10-13T14:18:45.009Z,98917.28
2022-10-13T14:21:12.169Z,98914.53
2022-10-13T14:23:39.904Z,98912.69
2022-10-13T14:26:11.803Z,98917.94
2022-10-13T14:28:44.850Z,98916.25
2022-10-13T14:31:12.641Z,98916.09
2022-10-13T14:33:40.723Z,98912.59
2022-10-13T14:36:08.503Z,98910.13
2022-10-13T14:38:35.443Z,98922.53
2022-10-13T14:41:05.729Z,98911.84
2022-10-13T14:43:33.388Z,98907.25
2022-10-13T14:46:06.193Z,98909.19
2022-10-13T14:48:35.897Z,98898.53
2022-10-13T14:51:11.162Z,98899.56
2022-10-13T14:53:45.022Z,98902.34
2022-10-13T14:56:32.284Z,98897.88
2022-10-13T14:59:02.532Z,98895.31
2022-10-13T15:01:30.218Z,98901.59
2022-10-13T15:03:57.139Z,98899.13
2022-10-13T15:06:26.072Z,98892.94
2022-10-13T15:08:53.565Z,98903.72
2022-10-13T15:11:21.900Z,98893.94
2022-10-13T15:13:49.403Z,98899.34
2022-10-13T15:16:22.607Z,98898.47
2022-10-13T15:18:50.127Z,98900.41
2022-10-13T15:21:18.220Z,98897.00
2022-10-13T15:23:45.888Z,98903.16
2022-10-13T15:26:15.963Z,98898.81
2022-10-13T15:28:47.220Z,98889.09
2022-10-13T15:31:17.933Z,98887.28
2022-10-13T15:33:53.807Z,98883.78
2022-10-13T15:36:23.365Z,98887.47
2022-10-13T15:38:51.311Z,98888.56
2022-10-13T15:41:18.935Z,98886.84
2022-10-13T15:43:46.083Z,98886.09
2022-10-13T15:46:21.402Z,98879.16
2022-10-13T15:48:53.401Z,98879.28
2022-10-13T15:51:24.374Z,98878.50
2022-10-13T15:53:51.543Z,98880.31
2022-10-13T15:56:18.551Z,98877.00
2022-10-13T15:58:45.715Z,98870.09
2022-10-13T16:01:14.954Z,98867.72
2022-10-13T16:03:42.461Z,98877.94
2022-10-13T16:06:13.524Z,98878.97
2022-10-13T16:08:44.296Z,98878.22
2022-10-13T16:11:16.074Z,98878.41
2022-10-13T16:13:53.355Z,98879.56
2022-10-13T16:16:22.332Z,98877.84
2022-10-13T16:18:50.909Z,98879.75
2022-10-13T16:21:22.559Z,98878.91
2022-10-13T16:23:50.163Z,98881.47
2022-10-13T16:26:18.522Z,98880.69
2022-10-13T16:28:46.804Z,98882.50
2022-10-13T16:31:17.614Z,98874.63
2022-10-13T16:33:45.834Z,98886.16
2022-10-13T16:36:19.543Z,98876.53
2022-10-13T16:38:48.058Z,98876.63
2022-10-13T16:41:18.337Z,98883.88
2022-10-13T16:43:47.130Z,98876.06
2022-10-13T16:46:18.742Z,98875.41
2022-10-13T16:48:47.228Z,98886.16
2022-10-13T16:51:21.156Z,98880.19
2022-10-13T16:53:59.958Z,98883.78
2022-10-13T16:56:31.150Z,98875.91
2022-10-13T16:59:04.688Z,98877.81
2022-10-13T17:01:36.831Z,98884.22
2022-10-13T17:04:05.270Z,98878.97
2022-10-13T17:06:32.993Z,98878.22
2022-10-13T17:09:03.388Z,98880.88
2022-10-13T17:11:35.210Z,98879.06
2022-10-13T17:14:05.717Z,98881.84
2022-10-13T17:16:36.444Z,98874.88
2022-10-13T17:19:03.970Z,98878.50
2022-10-13T17:21:31.344Z,98878.59
2022-10-13T17:23:58.306Z,98876.78
2022-10-13T17:26:26.151Z,98876.78
2022-10-13T17:28:54.221Z,98875.19
2022-10-13T17:31:24.310Z,98872.53
2022-10-13T17:33:53.154Z,98875.28
2022-10-13T17:36:52.323Z,98887.94
2022-10-13T17:39:20.558Z,98882.16
2022-10-13T17:41:48.815Z,98887.66
2022-10-13T17:44:20.708Z,98887.66
2022-10-13T17:46:50.269Z,98895.66
2022-10-13T17:49:28.561Z,98885.19
2022-10-13T17:51:58.665Z,98893.25
2022-10-13T17:54:25.848Z,98891.44
2022-10-13T17:56:57.531Z,98891.34
2022-10-13T17:59:24.850Z,98893.16
2022-10-13T18:01:53.420Z,98895.09
2022-10-13T18:04:23.056Z,98888.78
2022-10-13T18:06:52.773Z,98884.34
2022-10-13T18:09:24.608Z,98882.63
2022-10-13T18:11:54.940Z,98889.75
2022-10-13T18:14:25.193Z,98884.53
2022-10-13T18:16:54.319Z,98877.50
2022-10-13T18:19:22.957Z,98885.66
2022-10-13T18:21:53.344Z,98883.97
2022-10-13T18:24:21.211Z,98892.78
2022-10-13T18:26:55.016Z,98890.13
2022-10-13T18:29:23.960Z,98890.97
2022-10-13T18:31:51.402Z,98896.44
2022-10-13T18:34:19.013Z,98896.44
2022-10-13T18:36:50.643Z,98893.84
2022-10-13T18:39:22.674Z,98897.34
2022-10-13T18:41:51.087Z,98900.88
2022-10-13T18:44:20.469Z,98897.19
2022-10-13T18:46:53.122Z,98886.63
2022-10-13T18:49:23.906Z,98889.47
2022-10-13T18:51:52.241Z,98885.22
2022-10-13T18:54:19.632Z,98887.66
2022-10-13T18:56:47.418Z,98882.34
2022-10-13T18:59:15.676Z,98875.41
2022-10-13T19:01:44.628Z,98881.69
2022-10-13T19:04:14.896Z,98883.41
2022-10-13T19:06:42.752Z,98878.84
2022-10-13T19:09:14.080Z,98877.00
2022-10-13T19:11:41.940Z,98868.28
2022-10-13T19:14:12.933Z,98875.50
2022-10-13T19:16:44.081Z,98866.59
2022-10-13T19:19:14.193Z,98876.34
2022-10-13T19:21:42.183Z,98875.50
2022-10-13T19:24:11.138Z,98874.56
2022-10-13T19:26:38.536Z,98866.59
2022-10-13T19:29:11.901Z,98873.69
2022-10-13T19:31:42.329Z,98872.00
2022-10-13T19:34:11.940Z,98870.94
2022-10-13T19:36:47.198Z,98876.16
2022-10-13T19:39:23.174Z,98877.91
2022-10-13T19:41:52.988Z,98877.81
2022-10-13T19:44:23.459Z,98877.91
2022-10-13T19:46:53.265Z,98871.91
2022-10-13T19:49:26.779Z,98874.34
2022-10-13T19:52:02.414Z,98877.81
2022-10-13T19:54:33.938Z,98874.16
2022-10-13T19:57:03.179Z,98875.91
2022-10-13T19:59:30.520Z,98880.47
2022-10-13T20:01:57.980Z,98879.69
2022-10-13T20:04:25.480Z,98874.56
2022-10-13T20:06:53.292Z,98873.03
2022-10-13T20:09:21.090Z,98869.53
2022-10-13T20:11:51.387Z,98865.16
2022-10-13T20:14:20.671Z,98872.38
2022-10-13T20:16:59.050Z,98868.97
2022-10-13T20:19:31.278Z,98869.72
2022-10-13T20:22:02.526Z,98866.41
2022-10-13T20:24:29.749Z,98868.41
2022-10-13T20:26:56.850Z,98867.53
2022-10-13T20:29:24.480Z,98871.25
2022-10-13T20:31:51.775Z,98871.44
2022-10-13T20:34:19.167Z,98869.91
2022-10-13T20:36:46.780Z,98862.97
2022-10-13T20:39:13.710Z,98860.31
2022-10-13T20:41:42.999Z,98860.41
2022-10-13T20:44:11.133Z,98861.28
2022-10-13T20:46:38.724Z,98860.41
2022-10-13T20:49:11.062Z,98859.72
2022-10-13T20:51:40.023Z,98859.78
2022-10-13T20:54:08.171Z,98847.75
2022-10-13T20:56:35.820Z,98860.28
2022-10-13T20:59:06.338Z,98857.91
2022-10-13T21:01:34.717Z,98850.94
2022-10-13T21:04:01.754Z,98857.13
2022-10-13T21:06:30.071Z,98865.97
2022-10-13T21:08:57.775Z,98852.75
2022-10-13T21:11:25.779Z,98855.69
2022-10-13T21:13:54.402Z,98860.34
2022-10-13T21:16:27.487Z,98866.63
2022-10-13T21:18:57.401Z,98863.97
2022-10-13T21:21:32.518Z,98862.25
2022-10-13T21:24:03.671Z,98860.59
2022-10-13T21:26:33.475Z,98860.72
2022-10-13T21:29:02.424Z,98862.59
2022-10-13T21:31:29.994Z,98853.88
2022-10-13T21:33:57.198Z,98851.31
2022-10-13T21:36:30.968Z,98858.50
2022-10-13T21:39:04.885Z,98859.53
2022-10-13T21:41:32.464Z,98847.31
2022-10-13T21:43:59.676Z,98858.03
2022-10-13T21:46:31.154Z,98856.41
2022-10-13T21:49:02.425Z,98856.50
2022-10-13T21:51:37.326Z,98858.28
2022-10-13T21:54:10.090Z,98854.78
2022-10-13T21:56:37.925Z,98856.50
2022-10-13T21:59:05.849Z,98861.03
2022-10-13T22:01:34.312Z,98856.69
2022-10-13T22:04:02.543Z,98849.66
2022-10-13T22:06:32.093Z,98855.06
2022-10-13T22:09:02.472Z,98848.97
2022-10-13T22:11:32.295Z,98850.03
2022-10-13T22:14:00.035Z,98845.75
2022-10-13T22:16:35.967Z,98849.53
2022-10-13T22:19:03.668Z,98847.06
2022-10-13T22:21:37.222Z,98836.88
2022-10-13T22:24:08.252Z,98839.69
2022-10-13T22:26:38.179Z,98832.59
2022-10-13T22:29:07.662Z,98838.00
2022-10-13T22:31:36.025Z,98831.13
2022-10-13T22:34:04.693Z,98832.19
2022-10-13T22:36:31.727Z,98816.53
2022-10-13T22:39:02.832Z,98824.41
2022-10-13T22:41:33.006Z,98829.72
2022-10-13T22:44:01.905Z,98839.56
2022-10-13T22:46:34.093Z,98832.63
2022-10-13T22:49:02.110Z,98831.94
2022-10-13T22:51:31.329Z,98836.59
2022-10-13T22:53:59.038Z,98833.84
2022-10-13T22:56:30.580Z,98827.00
2022-10-13T22:59:02.049Z,98832.50
2022-10-13T23:01:29.557Z,98834.25
2022-10-13T23:03:58.954Z,98837.00
2022-10-13T23:06:30.640Z,98839.56
2022-10-13T23:09:02.116Z,98832.50
2022-10-13T23:11:29.622Z,98833.16
2022-10-13T23:13:56.451Z,98827.78
2022-10-13T23:16:25.810Z,98819.97
2022-10-13T23:18:53.632Z,98820.81
2022-10-13T23:21:23.819Z,98813.91
2022-10-13T23:23:59.956Z,98818.25
2022-10-13T23:26:28.541Z,98820.81
2022-10-13T23:28:57.654Z,98818.09
2022-10-13T23:31:26.739Z,98826.22
2022-10-13T23:33:54.063Z,98832.50
2022-10-13T23:36:32.759Z,98825.63
2022-10-13T23:39:04.966Z,98831.81
2022-10-13T23:41:34.143Z,98829.91
2022-10-13T23:44:01.171Z,98832.50
2022-10-13T23:46:28.707Z,98830.75
2022-10-13T23:48:56.477Z,98831.69
2022-10-13T23:51:25.912Z,98832.84
2022-10-13T23:53:53.497Z,98828.63
2022-10-13T23:56:20.858Z,98830.69
2022-10-13T23:58:48.292Z,98833.50
